Time;durP1;ratioP1;P1;durP2;ratioP2;P2;SDS_P1;SDS_P2;PMS_P1;PMS_P2;Temp;Humidity;BMP_temperature;BMP_pressure;BME280_temperature;BME280_humidity;BME280_pressure;Samples;Min_cycle;Max_cycle;Signal;HPM_P1;HPM_P2
2023/05/04 00:01:09;;;;;;;6.90;2.55;;;4.40;99.90;;;;;;5062966;28;20028;-68
2023/05/04 00:03:36;;;;;;;6.40;2.85;;;4.50;99.90;;;;;;5060621;28;20041;-68
2023/05/04 00:06:02;;;;;;;4.55;2.65;;;4.60;99.90;;;;;;5060233;28;20098;-68
2023/05/04 00:08:27;;;;;;;6.82;2.70;;;4.50;99.90;;;;;;5066572;28;20408;-68
2023/05/04 00:10:54;;;;;;;;;;;4.50;99.90;;;;;;5069063;28;20072;-69
2023/05/04 00:13:20;;;;;;;5.28;2.75;;;4.50;99.90;;;;;;5058823;28;19963;-68
2023/05/04 00:15:46;;;;;;;3.85;2.58;;;4.40;99.90;;;;;;5061809;28;20071;-68
2023/05/04 00:18:12;;;;;;;9.05;3.50;;;4.40;99.90;;;;;;5052278;28;20665;-68
2023/05/04 00:20:37;;;;;;;;;;;4.40;99.90;;;;;;5054953;28;20131;-68
2023/05/04 00:23:03;;;;;;;3.10;2.22;;;4.40;99.90;;;;;;5061175;28;19921;-68
2023/05/04 00:25:28;;;;;;;;;;;4.30;99.90;;;;;;5045839;28;20132;-68
2023/05/04 00:27:54;;;;;;;6.05;2.92;;;4.40;99.90;;;;;;5044593;28;20357;-69
2023/05/04 00:30:20;;;;;;;7.43;3.00;;;4.30;99.90;;;;;;5044139;28;20036;-68
2023/05/04 00:32:45;;;;;;;8.80;2.75;;;4.30;99.90;;;;;;5046176;28;20041;-68
2023/05/04 00:35:11;;;;;;;6.38;3.08;;;4.30;99.90;;;;;;5045549;28;20136;-68
2023/05/04 00:37:37;;;;;;;4.15;2.45;;;4.30;99.90;;;;;;5044818;28;20040;-68
2023/05/04 00:40:03;;;;;;;6.25;3.15;;;4.20;99.90;;;;;;5046226;28;20056;-68
2023/05/04 00:42:28;;;;;;;6.07;3.00;;;4.20;99.90;;;;;;5041902;28;20076;-68
2023/05/04 00:44:54;;;;;;;7.75;2.95;;;4.20;99.90;;;;;;5042512;28;20033;-68
2023/05/04 00:47:20;;;;;;;8.13;3.10;;;4.20;99.90;;;;;;5042079;28;20036;-68
2023/05/04 00:49:46;;;;;;;9.40;3.45;;;4.10;99.90;;;;;;5044927;28;20696;-68
2023/05/04 00:52:13;;;;;;;5.03;3.03;;;4.10;99.90;;;;;;5043255;28;20045;-68
2023/05/04 00:54:41;;;;;;;8.60;3.28;;;4.10;99.90;;;;;;5046082;28;20760;-68
2023/05/04 00:57:07;;;;;;;17.42;3.38;;;4.10;99.90;;;;;;5045174;28;20072;-68
2023/05/04 00:59:33;;;;;;;6.50;2.90;;;4.00;99.90;;;;;;5053531;28;20072;-69
2023/05/04 01:01:58;;;;;;;6.00;3.03;;;4.00;99.90;;;;;;5042003;28;20584;-68
2023/05/04 01:04:24;;;;;;;11.68;3.40;;;4.00;99.90;;;;;;5052799;28;20028;-68
2023/05/04 01:07:15;;;;;;;6.40;2.75;;;3.90;99.90;;;;;;5044639;28;20094;-69
2023/05/04 01:09:48;;;;;;;8.43;3.10;;;3.90;99.90;;;;;;5040372;28;20111;-68
2023/05/04 01:12:34;;;;;;;9.82;4.10;;;3.90;99.90;;;;;;5040000;28;20045;-68
2023/05/04 01:15:01;;;;;;;9.95;3.53;;;3.90;99.90;;;;;;5046362;28;20064;-68
2023/05/04 01:17:27;;;;;;;9.73;3.35;;;3.90;99.90;;;;;;5044824;28;20100;-68
2023/05/04 01:19:53;;;;;;;8.52;3.38;;;4.00;99.90;;;;;;5044781;28;20136;-68
2023/05/04 01:22:19;;;;;;;7.70;3.00;;;3.90;99.90;;;;;;5041837;28;20119;-67
2023/05/04 01:24:45;;;;;;;10.50;3.20;;;3.90;99.90;;;;;;5044553;28;20047;-67
2023/05/04 01:27:30;;;;;;;7.45;2.95;;;3.90;99.90;;;;;;5044751;28;20135;-67
2023/05/04 01:30:08;;;;;;;7.95;2.83;;;3.80;99.90;;;;;;5047069;28;20048;-67
2023/05/04 01:32:35;;;;;;;7.57;3.28;;;3.80;99.90;;;;;;5035851;28;20090;-67
2023/05/04 01:35:01;;;;;;;8.82;3.47;;;3.80;99.90;;;;;;5044948;28;20378;-67
2023/05/04 01:37:27;;;;;;;9.02;3.05;;;3.80;99.90;;;;;;5051126;28;20056;-67
2023/05/04 01:39:52;;;;;;;4.60;3.40;;;3.70;99.90;;;;;;5044501;28;20045;-67
2023/05/04 01:42:18;;;;;;;7.28;2.95;;;3.70;99.90;;;;;;5041346;28;20041;-67
2023/05/04 01:44:44;;;;;;;7.10;3.03;;;3.80;99.90;;;;;;5045846;28;20071;-67
2023/05/04 01:47:09;;;;;;;5.80;3.20;;;3.80;99.90;;;;;;5044614;28;20041;-67
2023/05/04 01:49:35;;;;;;;11.57;4.28;;;3.70;99.90;;;;;;5046417;28;20040;-67
2023/05/04 01:52:00;;;;;;;9.27;3.53;;;3.70;99.90;;;;;;5042015;28;20160;-67
2023/05/04 01:54:26;;;;;;;14.02;4.35;;;3.60;99.90;;;;;;5046425;28;20041;-67
2023/05/04 01:56:52;;;;;;;3.95;2.67;;;3.60;99.90;;;;;;5063168;28;20498;-67
2023/05/04 01:59:17;;;;;;;10.93;3.40;;;3.50;99.90;;;;;;5047427;28;20041;-67
2023/05/04 02:01:43;;;;;;;8.85;4.18;;;3.50;99.90;;;;;;5043611;28;20114;-67
2023/05/04 02:04:09;;;;;;;10.13;4.05;;;3.60;99.90;;;;;;5045062;28;20119;-67
2023/05/04 02:06:34;;;;;;;8.40;3.45;;;3.60;99.90;;;;;;5052623;28;20091;-67
2023/05/04 02:09:00;;;;;;;7.00;3.60;;;3.50;99.90;;;;;;5054867;28;20045;-67
2023/05/04 02:11:26;;;;;;;8.95;3.75;;;3.50;99.90;;;;;;5061646;28;20037;-67
2023/05/04 02:13:51;;;;;;;7.15;3.50;;;3.50;99.90;;;;;;5061655;28;20033;-67
2023/05/04 02:16:17;;;;;;;6.78;3.35;;;3.50;99.90;;;;;;5060274;28;20051;-68
2023/05/04 02:18:43;;;;;;;10.70;4.43;;;3.50;99.90;;;;;;5065569;28;20131;-67
2023/05/04 02:21:08;;;;;;;9.73;3.92;;;3.50;99.90;;;;;;5057168;28;20043;-68
2023/05/04 02:23:34;;;;;;;5.80;3.40;;;3.50;99.90;;;;;;5063609;28;20067;-67
2023/05/04 02:26:00;;;;;;;5.80;3.65;;;3.50;99.90;;;;;;5052997;28;20132;-68
2023/05/04 02:28:26;;;;;;;6.43;3.33;;;3.50;99.90;;;;;;5045424;28;20041;-67
2023/05/04 02:30:52;;;;;;;8.65;3.03;;;3.50;99.90;;;;;;5046064;28;20532;-67
2023/05/04 02:33:17;;;;;;;12.88;3.85;;;3.40;99.90;;;;;;5044301;28;20056;-67
2023/05/04 02:35:43;;;;;;;6.45;3.42;;;3.40;99.90;;;;;;5044154;28;20143;-67
2023/05/04 02:38:09;;;;;;;7.85;3.60;;;3.40;99.90;;;;;;5044575;28;20032;-69
2023/05/04 02:40:34;;;;;;;8.00;3.38;;;3.40;99.90;;;;;;5043739;28;20041;-69
2023/05/04 02:43:00;;;;;;;11.93;4.20;;;3.40;99.90;;;;;;5043611;28;20044;-69
2023/05/04 02:45:25;;;;;;;9.65;3.20;;;3.40;99.90;;;;;;5044231;28;20045;-68
2023/05/04 02:47:51;;;;;;;5.75;3.25;;;3.40;99.90;;;;;;5043001;28;20037;-68
2023/05/04 02:50:17;;;;;;;7.22;3.67;;;3.30;99.90;;;;;;5044172;28;20105;-68
2023/05/04 02:52:42;;;;;;;5.32;2.90;;;3.30;99.90;;;;;;5058104;28;20051;-68
2023/05/04 02:55:08;;;;;;;6.63;3.60;;;3.30;99.90;;;;;;5061917;28;20119;-68
2023/05/04 02:57:34;;;;;;;7.95;3.80;;;3.30;99.90;;;;;;5043899;28;20040;-68
2023/05/04 02:59:59;;;;;;;9.40;3.40;;;3.30;99.90;;;;;;5044248;28;20036;-68
2023/05/04 03:02:25;;;;;;;13.30;4.20;;;3.30;99.90;;;;;;5041945;28;20036;-68
2023/05/04 03:04:51;;;;;;;10.40;3.97;;;3.20;99.90;;;;;;5049142;28;20103;-68
2023/05/04 03:07:16;;;;;;;10.52;4.10;;;3.30;99.90;;;;;;5042629;28;20044;-68
2023/05/04 03:09:42;;;;;;;10.30;4.47;;;3.30;99.90;;;;;;5044056;28;20107;-68
2023/05/04 03:12:08;;;;;;;9.55;3.40;;;3.20;99.90;;;;;;5057167;28;20040;-69
2023/05/04 03:14:33;;;;;;;8.57;3.53;;;3.20;99.90;;;;;;5064271;28;20041;-68
2023/05/04 03:16:59;;;;;;;9.82;4.05;;;3.20;99.90;;;;;;5062332;28;20132;-68
2023/05/04 03:19:25;;;;;;;5.65;3.88;;;3.20;99.90;;;;;;5064008;28;20048;-68
2023/05/04 03:21:51;;;;;;;9.60;3.63;;;3.20;99.90;;;;;;5055809;28;20119;-68
2023/05/04 03:24:17;;;;;;;12.75;4.15;;;3.10;99.90;;;;;;5064789;28;20483;-68
2023/05/04 03:26:43;;;;;;;6.38;3.90;;;3.10;99.90;;;;;;5047643;28;20056;-68
2023/05/04 03:29:09;;;;;;;11.20;3.97;;;3.10;99.90;;;;;;5047131;28;20041;-68
2023/05/04 03:31:36;;;;;;;11.45;4.82;;;3.10;99.90;;;;;;5040164;28;20060;-69
2023/05/04 03:34:02;;;;;;;7.88;4.47;;;3.10;99.90;;;;;;5042718;28;20064;-69
2023/05/04 03:36:28;;;;;;;16.52;4.57;;;3.10;99.90;;;;;;5041556;28;20586;-69
2023/05/04 03:38:54;;;;;;;9.27;4.43;;;3.00;99.90;;;;;;5043340;28;20505;-69
2023/05/04 03:41:20;;;;;;;7.63;4.63;;;3.10;99.90;;;;;;5047687;28;20045;-69
2023/05/04 03:43:46;;;;;;;8.48;4.75;;;3.10;99.90;;;;;;5058828;28;20051;-68
2023/05/04 03:46:11;;;;;;;11.50;5.30;;;3.10;99.90;;;;;;5059799;28;20052;-69
2023/05/04 03:48:38;;;;;;;8.90;4.20;;;3.20;99.90;;;;;;5044006;28;20467;-69
2023/05/04 03:51:05;;;;;;;11.70;5.20;;;3.10;99.90;;;;;;5041491;28;20072;-68
2023/05/04 03:53:33;;;;;;;9.30;4.50;;;3.20;99.90;;;;;;5063528;28;20377;-68
2023/05/04 03:55:58;;;;;;;9.02;4.25;;;3.20;99.90;;;;;;5065949;28;20136;-69
2023/05/04 03:58:24;;;;;;;9.18;4.68;;;3.20;99.90;;;;;;5047319;28;20124;-69
2023/05/04 04:00:50;;;;;;;9.90;4.70;;;3.20;99.90;;;;;;5048741;28;20045;-68
2023/05/04 04:03:15;;;;;;;8.57;4.20;;;3.20;99.90;;;;;;5063446;28;20040;-68
2023/05/04 04:05:41;;;;;;;7.75;4.35;;;3.20;99.90;;;;;;5059754;28;20394;-68
2023/05/04 04:08:06;;;;;;;8.52;4.57;;;3.20;99.90;;;;;;5053353;28;20041;-68
2023/05/04 04:10:33;;;;;;;13.70;4.35;;;3.30;99.90;;;;;;5045947;28;20041;-69
2023/05/04 04:12:59;;;;;;;8.02;4.65;;;3.30;99.90;;;;;;5058726;28;20044;-68
2023/05/04 04:15:25;;;;;;;7.93;4.38;;;3.30;99.90;;;;;;5063012;28;20106;-69
2023/05/04 04:17:51;;;;;;;8.63;4.20;;;3.30;99.90;;;;;;5045597;28;20104;-68
2023/05/04 04:20:17;;;;;;;9.30;4.55;;;3.40;99.90;;;;;;5043941;28;20361;-69
2023/05/04 04:22:42;;;;;;;11.90;4.32;;;3.40;99.90;;;;;;5036835;23;20045;-69
2023/05/04 04:25:09;;;;;;;8.02;4.15;;;3.50;99.90;;;;;;5045109;28;20041;-68
2023/05/04 04:27:35;;;;;;;8.15;4.78;;;3.50;99.90;;;;;;5051786;28;20071;-67
2023/05/04 04:30:04;;;;;;;14.70;4.05;;;3.50;99.90;;;;;;5046848;28;20063;-67
2023/05/04 04:32:30;;;;;;;6.78;4.30;;;3.60;99.90;;;;;;5062227;28;20109;-67
2023/05/04 04:34:59;;;;;;;10.35;5.03;;;3.70;99.90;;;;;;5065817;28;20072;-67
2023/05/04 04:37:25;;;;;;;11.27;3.88;;;3.70;99.90;;;;;;5056146;28;20052;-68
2023/05/04 04:39:50;;;;;;;11.00;4.65;;;3.80;99.90;;;;;;5064063;28;20079;-68
2023/05/04 04:42:16;;;;;;;7.93;4.45;;;3.90;99.90;;;;;;5062774;28;20041;-67
2023/05/04 04:44:44;;;;;;;10.52;4.57;;;4.00;99.90;;;;;;5064684;28;20044;-68
2023/05/04 04:47:10;;;;;;;11.45;4.68;;;4.10;99.90;;;;;;5064384;28;20139;-67
2023/05/04 04:49:36;;;;;;;5.72;3.28;;;4.20;99.90;;;;;;5064948;28;20582;-68
2023/05/04 04:52:02;;;;;;;10.65;4.20;;;4.30;99.90;;;;;;5062113;28;20048;-68
2023/05/04 04:54:28;;;;;;;8.93;4.65;;;4.40;99.90;;;;;;5064943;28;20041;-68
2023/05/04 04:56:54;;;;;;;6.28;3.65;;;4.60;99.90;;;;;;5064379;28;20052;-67
2023/05/04 04:59:22;;;;;;;8.93;3.70;;;4.80;99.90;;;;;;5065737;28;20463;-67
2023/05/04 05:01:48;;;;;;;8.00;4.07;;;4.80;99.90;;;;;;5057170;28;20532;-67
2023/05/04 05:04:14;;;;;;;7.80;4.75;;;5.00;99.90;;;;;;5045786;28;20036;-68
2023/05/04 05:06:40;;;;;;;12.65;4.47;;;5.10;99.90;;;;;;5044881;28;20049;-68
2023/05/04 05:09:06;;;;;;;9.35;4.20;;;5.30;99.90;;;;;;5045953;28;20041;-68
2023/05/04 05:11:31;;;;;;;15.20;4.00;;;5.40;99.90;;;;;;5043271;28;20469;-67
2023/05/04 05:13:58;;;;;;;;;;;5.30;99.90;;;;;;5044448;28;20099;-68
2023/05/04 05:16:24;;;;;;;9.40;3.85;;;5.40;99.90;;;;;;5044593;28;20008;-68
2023/05/04 05:18:50;;;;;;;;;;;5.50;99.90;;;;;;5044029;28;20127;-68
2023/05/04 05:21:15;;;;;;;9.57;3.30;;;5.70;99.90;;;;;;5044451;28;19916;-68
2023/05/04 05:23:41;;;;;;;9.82;4.35;;;5.80;99.90;;;;;;5045805;28;20036;-68
2023/05/04 05:26:06;;;;;;;;;;;5.90;99.90;;;;;;5027606;28;20033;-68
2023/05/04 05:28:32;;;;;;;11.60;3.85;;;6.00;99.90;;;;;;5043671;28;19921;-68
2023/05/04 05:30:57;;;;;;;;;;;6.10;99.90;;;;;;5066797;28;20500;-67
2023/05/04 05:33:23;;;;;;;11.98;3.30;;;6.30;99.90;;;;;;5044407;28;19939;-67
2023/05/04 05:35:49;;;;;;;9.35;3.20;;;6.40;99.90;;;;;;5045126;28;20094;-67
2023/05/04 05:38:15;;;;;;;;;;;6.60;99.90;;;;;;5045134;28;20555;-71
2023/05/04 05:40:40;;;;;;;7.30;3.42;;;6.70;99.90;;;;;;5060111;28;19967;-68
2023/05/04 05:43:06;;;;;;;;;;;6.80;99.90;;;;;;5042958;28;20036;-68
2023/05/04 05:45:32;;;;;;;10.35;3.50;;;7.00;99.90;;;;;;5044114;28;19917;-67
2023/05/04 05:47:57;;;;;;;;;;;7.10;99.90;;;;;;5039786;28;20497;-72
2023/05/04 05:50:23;;;;;;;8.07;3.72;;;7.20;99.90;;;;;;5032553;28;19917;-71
2023/05/04 05:52:49;;;;;;;;;;;7.20;99.90;;;;;;5043829;28;20037;-70
2023/05/04 05:55:14;;;;;;;10.65;2.90;;;7.30;99.90;;;;;;5043262;28;20446;-70
2023/05/04 05:57:40;;;;;;;9.63;3.20;;;7.50;99.90;;;;;;5045061;28;20036;-72
2023/05/04 06:00:06;;;;;;;;;;;7.60;99.90;;;;;;5043285;28;20037;-69
2023/05/04 06:02:32;;;;;;;10.77;3.78;;;7.60;99.90;;;;;;5033833;28;19964;-72
2023/05/04 06:04:57;;;;;;;;;;;7.70;99.90;;;;;;5045059;28;20045;-70
2023/05/04 06:07:23;;;;;;;9.13;3.60;;;7.80;99.90;;;;;;5044452;28;20395;-69
2023/05/04 06:09:48;;;;;;;;;;;7.90;99.90;;;;;;5045235;28;20040;-73
2023/05/04 06:12:15;;;;;;;12.77;3.67;;;8.00;99.90;;;;;;5042011;28;19916;-74
2023/05/04 06:14:42;;;;;;;7.40;3.55;;;8.10;99.90;;;;;;5036410;28;20048;-71
2023/05/04 06:17:08;;;;;;;7.82;3.38;;;8.40;99.90;;;;;;5041302;28;20037;-73
2023/05/04 06:19:36;;;;;;;7.20;3.55;;;8.90;99.90;;;;;;5043587;28;20453;-72
2023/05/04 06:22:01;;;;;;;10.30;3.47;;;9.40;99.90;;;;;;5025307;28;20094;-72
2023/05/04 06:24:28;;;;;;;;;;;9.90;99.90;;;;;;5045174;28;20123;-71
2023/05/04 06:26:55;;;;;;;7.53;3.30;;;10.00;99.90;;;;;;5026026;28;19920;-72
2023/05/04 06:29:21;;;;;;;10.63;3.50;;;10.00;99.90;;;;;;5048500;28;20067;-69
2023/05/04 06:31:47;;;;;;;;;;;9.80;99.90;;;;;;5034535;28;20041;-69
2023/05/04 06:34:14;;;;;;;12.23;3.45;;;9.90;99.90;;;;;;5035919;28;19942;-68
2023/05/04 06:36:39;;;;;;;9.40;3.08;;;10.40;99.90;;;;;;5040238;28;20119;-66
2023/05/04 06:39:05;;;;;;;;;;;11.40;99.90;;;;;;5042361;28;20178;-67
2023/05/04 06:41:30;;;;;;;4.60;2.22;;;12.50;99.90;;;;;;5038111;28;19921;-68
2023/05/04 06:43:56;;;;;;;;;;;13.80;99.80;;;;;;5040864;28;20037;-68
2023/05/04 06:46:22;;;;;;;7.03;2.80;;;15.20;97.10;;;;;;5045830;28;19927;-68
2023/05/04 06:48:48;;;;;;;7.75;2.50;;;16.10;94.10;;;;;;5046714;28;20048;-67
2023/05/04 06:51:14;;;;;;;7.22;2.92;;;16.90;93.20;;;;;;5041725;28;20036;-67
2023/05/04 06:53:40;;;;;;;7.03;2.72;;;17.20;90.10;;;;;;5042624;28;20045;-67
2023/05/04 06:56:06;;;;;;;8.80;3.20;;;17.70;87.60;;;;;;5044530;28;20045;-68
2023/05/04 06:58:32;;;;;;;7.10;3.30;;;17.30;84.90;;;;;;5043503;28;20073;-68
2023/05/04 07:00:57;;;;;;;8.38;3.65;;;16.80;86.10;;;;;;5041666;28;20048;-66
2023/05/04 07:03:23;;;;;;;7.00;3.10;;;17.10;85.90;;;;;;5041158;28;20434;-68
2023/05/04 07:05:49;;;;;;;4.28;2.78;;;17.10;85.50;;;;;;5040263;28;20041;-68
2023/05/04 07:08:16;;;;;;;5.20;2.97;;;17.30;84.40;;;;;;5044409;28;20055;-68
2023/05/04 07:10:42;;;;;;;5.20;2.63;;;18.00;83.80;;;;;;5041711;28;20045;-68
2023/05/04 07:13:08;;;;;;;6.07;3.35;;;18.50;78.50;;;;;;5040615;28;20704;-67
2023/05/04 07:15:33;;;;;;;4.68;2.53;;;18.50;77.60;;;;;;5042701;28;20044;-67
2023/05/04 07:18:00;;;;;;;7.18;2.70;;;18.50;84.30;;;;;;5042362;28;20469;-67
2023/05/04 07:20:26;;;;;;;9.88;3.00;;;18.50;83.30;;;;;;5043571;28;20049;-67
2023/05/04 07:22:57;;;;;;;5.40;2.85;;;18.50;79.60;;;;;;5044412;28;20049;-67
2023/05/04 07:25:25;;;;;;;4.95;2.55;;;18.00;78.50;;;;;;5044810;28;20132;-68
2023/05/04 07:27:51;;;;;;;5.05;2.97;;;17.10;81.30;;;;;;5045617;28;20098;-68
2023/05/04 07:30:18;;;;;;;8.18;2.55;;;16.70;84.40;;;;;;5045352;28;20079;-67
2023/05/04 07:32:44;;;;;;;7.85;2.92;;;16.50;84.20;;;;;;5045643;28;20496;-67
2023/05/04 07:35:09;;;;;;;20.23;7.45;;;16.60;84.70;;;;;;5048642;28;20048;-67
2023/05/04 07:37:35;;;;;;;8.50;3.28;;;16.90;84.50;;;;;;5045529;28;20052;-67
2023/05/04 07:40:04;;;;;;;6.13;3.35;;;17.40;84.90;;;;;;5044845;28;20049;-67
2023/05/04 07:42:30;;;;;;;6.85;2.90;;;17.70;82.70;;;;;;5042746;28;20053;-67
2023/05/04 07:44:57;;;;;;;21.40;6.22;;;17.80;81.90;;;;;;5029739;28;20052;-67
2023/05/04 07:47:23;;;;;;;6.63;3.20;;;18.20;82.60;;;;;;5046963;28;20124;-67
2023/05/04 07:49:49;;;;;;;8.35;3.47;;;18.40;77.80;;;;;;5048452;28;20071;-67
2023/05/04 07:52:14;;;;;;;8.23;2.88;;;18.30;80.90;;;;;;5046667;28;20032;-67
2023/05/04 07:54:40;;;;;;;7.32;3.35;;;18.20;79.00;;;;;;5043877;28;20033;-67
2023/05/04 07:57:06;;;;;;;5.32;3.00;;;18.20;77.40;;;;;;5045670;28;20045;-67
2023/05/04 07:59:32;;;;;;;9.10;3.47;;;18.70;78.20;;;;;;5047250;28;20063;-68
2023/05/04 08:01:58;;;;;;;5.93;3.00;;;19.30;74.40;;;;;;5024895;28;20040;-70
2023/05/04 08:04:24;;;;;;;12.85;3.50;;;19.40;75.40;;;;;;5027703;28;20760;-68
2023/05/04 08:06:49;;;;;;;19.05;5.85;;;19.80;74.00;;;;;;5044088;28;20123;-69
2023/05/04 08:09:15;;;;;;;7.65;3.67;;;20.30;74.70;;;;;;5048235;28;20101;-70
2023/05/04 08:11:41;;;;;;;11.13;3.53;;;20.40;73.00;;;;;;5047020;28;20097;-68
2023/05/04 08:14:07;;;;;;;6.45;3.10;;;20.40;71.70;;;;;;5048500;28;20124;-68
2023/05/04 08:16:33;;;;;;;5.50;3.13;;;20.40;70.60;;;;;;5046251;28;20056;-68
2023/05/04 08:19:00;;;;;;;7.70;2.58;;;20.50;71.80;;;;;;5043343;28;20033;-68
2023/05/04 08:21:26;;;;;;;12.95;3.60;;;20.40;72.40;;;;;;5043734;28;20110;-68
2023/05/04 08:23:52;;;;;;;4.20;2.83;;;19.80;69.70;;;;;;5044999;28;20864;-68
2023/05/04 08:26:22;;;;;;;7.22;3.17;;;19.40;73.80;;;;;;5046826;28;20049;-68
2023/05/04 08:28:48;;;;;;;8.80;2.80;;;19.60;72.50;;;;;;5053100;28;20052;-68
2023/05/04 08:31:14;;;;;;;7.38;3.08;;;20.00;72.60;;;;;;5050019;28;20098;-69
2023/05/04 08:33:39;;;;;;;9.68;4.10;;;20.50;71.20;;;;;;5045846;28;20040;-69
2023/05/04 08:36:06;;;;;;;6.82;2.88;;;20.40;69.80;;;;;;5047287;28;20413;-69
2023/05/04 08:38:32;;;;;;;5.45;2.92;;;20.30;69.70;;;;;;5039186;28;20076;-69
2023/05/04 08:41:03;;;;;;;7.80;3.28;;;20.10;69.10;;;;;;5048039;28;20599;-67
2023/05/04 08:43:30;;;;;;;9.25;3.55;;;20.30;69.70;;;;;;5044119;28;20436;-68
2023/05/04 08:45:55;;;;;;;10.35;3.88;;;20.00;69.40;;;;;;5026527;28;21419;-68
2023/05/04 08:48:21;;;;;;;7.40;3.83;;;19.30;71.30;;;;;;5043728;28;20037;-68
2023/05/04 08:50:47;;;;;;;6.32;3.40;;;19.00;72.30;;;;;;5045624;28;20876;-67
2023/05/04 08:53:17;;;;;;;4.93;3.53;;;18.60;74.20;;;;;;5045646;28;20090;-68
2023/05/04 08:55:46;;;;;;;5.82;3.65;;;18.00;75.50;;;;;;5028701;28;20096;-67
2023/05/04 08:58:15;;;;;;;8.88;4.18;;;17.80;78.50;;;;;;5045961;28;20036;-68
2023/05/04 09:00:42;;;;;;;9.18;3.40;;;17.40;78.40;;;;;;5049591;28;20052;-68
2023/05/04 09:03:09;;;;;;;16.80;3.90;;;17.50;83.10;;;;;;5050059;28;20052;-70
2023/05/04 09:05:35;;;;;;;9.00;3.92;;;17.50;78.60;;;;;;5028204;28;20120;-69
2023/05/04 09:08:01;;;;;;;7.55;3.63;;;17.40;80.00;;;;;;5047048;28;20401;-68
2023/05/04 09:10:27;;;;;;;;;;;17.60;80.10;;;;;;5047248;28;20033;-68
2023/05/04 09:12:54;;;;;;;8.60;4.93;;;17.60;83.00;;;;;;5045066;28;20486;-67
2023/05/04 09:15:21;;;;;;;6.72;3.53;;;17.60;78.80;;;;;;5044608;28;20048;-68
2023/05/04 09:18:06;;;;;;;11.00;3.40;;;17.80;82.50;;;;;;5044740;28;20076;-67
2023/05/04 09:20:45;;;;;;;7.28;4.10;;;17.90;77.80;;;;;;5045096;28;20044;-67
2023/05/04 09:23:13;;;;;;;8.63;4.18;;;17.80;77.30;;;;;;5044833;28;20041;-68
2023/05/04 09:25:50;;;;;;;5.57;3.72;;;17.70;81.40;;;;;;5045356;28;20103;-67
2023/05/04 09:28:17;;;;;;;9.77;4.38;;;17.80;80.40;;;;;;5045547;28;20092;-67
2023/05/04 09:30:43;;;;;;;8.82;4.35;;;17.90;80.00;;;;;;5044359;28;20040;-67
2023/05/04 09:33:12;;;;;;;12.18;3.83;;;18.10;80.60;;;;;;5045802;28;20057;-67
2023/05/04 09:35:43;;;;;;;6.97;4.10;;;17.90;77.70;;;;;;5044895;28;20035;-67
2023/05/04 09:38:09;;;;;;;12.13;4.70;;;17.90;81.70;;;;;;5027770;28;20045;-67
2023/05/04 09:40:40;;;;;;;6.70;4.60;;;18.00;78.10;;;;;;5051645;28;20048;-67
2023/05/04 09:43:09;;;;;;;7.05;4.03;;;17.90;78.20;;;;;;5038820;28;20032;-67
2023/05/04 09:45:40;;;;;;;7.22;4.13;;;17.80;77.10;;;;;;5045384;28;20037;-67
2023/05/04 09:48:19;;;;;;;8.27;3.83;;;17.80;78.50;;;;;;5040682;28;20711;-72
2023/05/04 09:50:53;;;;;;;6.03;4.20;;;17.90;79.50;;;;;;5043459;28;20080;-68
2023/05/04 09:53:27;;;;;;;15.32;4.68;;;17.60;76.80;;;;;;5045022;28;20045;-66
2023/05/04 09:56:05;;;;;;;8.35;3.92;;;17.60;81.10;;;;;;5039995;28;20052;-66
2023/05/04 09:58:32;;;;;;;11.40;4.13;;;17.70;78.40;;;;;;5042455;28;20119;-69
2023/05/04 10:01:03;;;;;;;14.18;3.95;;;17.80;77.60;;;;;;5041074;28;20106;-69
2023/05/04 10:03:30;;;;;;;6.80;3.45;;;17.90;79.50;;;;;;5044157;28;20045;-73
2023/05/04 10:05:58;;;;;;;17.85;4.88;;;18.10;79.90;;;;;;5045326;28;20146;-73
2023/05/04 10:08:25;;;;;;;10.77;5.28;;;18.30;80.30;;;;;;5043502;28;20088;-72
2023/05/04 10:10:51;;;;;;;6.38;3.60;;;18.50;80.80;;;;;;5038820;28;20052;-69
2023/05/04 10:13:17;;;;;;;;;;;18.60;78.70;;;;;;5045229;28;20040;-70
2023/05/04 10:16:09;;;;;;;6.40;3.55;;;18.40;79.10;;;;;;5043326;28;20296;-68
2023/05/04 10:19:06;;;;;;;5.15;2.90;;;18.60;79.40;;;;;;5042386;28;20060;-68
2023/05/04 10:21:46;;;;;;;6.15;3.65;;;18.70;80.80;;;;;;5003547;28;20074;-67
2023/05/04 10:24:36;;;;;;;11.23;3.85;;;18.50;74.50;;;;;;5044619;28;20045;-69
2023/05/04 10:27:05;;;;;;;6.85;3.38;;;18.40;76.10;;;;;;5027949;28;20051;-70
2023/05/04 10:29:34;;;;;;;5.93;3.47;;;18.30;77.50;;;;;;5030995;28;20062;-67
2023/05/04 10:32:00;;;;;;;8.98;4.05;;;18.30;77.30;;;;;;5039895;28;20086;-67
2023/05/04 10:34:35;;;;;;;6.82;3.20;;;18.40;78.40;;;;;;5058475;28;20037;-67
2023/05/04 10:37:03;;;;;;;4.82;3.30;;;18.50;78.10;;;;;;5045510;28;20417;-67
2023/05/04 10:39:32;;;;;;;8.75;3.47;;;18.60;77.40;;;;;;5042800;28;20052;-68
2023/05/04 10:42:05;;;;;;;15.10;3.35;;;18.60;76.20;;;;;;5041919;28;20040;-67
2023/05/04 10:44:32;;;;;;;7.18;3.55;;;18.30;76.30;;;;;;5025501;28;20436;-68
2023/05/04 10:47:04;;;;;;;10.23;3.75;;;18.10;79.20;;;;;;5044107;28;20040;-68
2023/05/04 10:49:31;;;;;;;5.22;3.15;;;18.20;79.00;;;;;;5039254;28;20622;-67
2023/05/04 10:52:06;;;;;;;7.18;3.13;;;18.30;79.30;;;;;;5041072;28;20094;-67
2023/05/04 10:54:33;;;;;;;8.77;3.53;;;18.40;79.80;;;;;;5042190;28;20037;-67
2023/05/04 10:57:17;;;;;;;9.55;3.60;;;18.20;75.70;;;;;;5044270;28;20120;-68
2023/05/04 10:59:54;;;;;;;4.93;3.15;;;18.20;76.20;;;;;;5042902;28;20044;-68
2023/05/04 11:02:24;;;;;;;7.50;3.08;;;18.30;76.50;;;;;;5042233;28;20037;-67
2023/05/04 11:05:19;;;;;;;4.53;3.22;;;17.90;73.10;;;;;;5043861;28;20044;-67
2023/05/04 11:07:49;;;;;;;6.35;3.60;;;17.80;75.30;;;;;;5031563;28;20094;-68
2023/05/04 11:10:25;;;;;;;5.80;2.90;;;17.80;76.90;;;;;;5052988;28;20472;-68
2023/05/04 11:12:51;;;;;;;7.43;3.60;;;18.00;78.60;;;;;;5042108;28;20052;-68
2023/05/04 11:15:18;;;;;;;6.00;3.50;;;18.20;77.10;;;;;;5043790;28;20049;-68
2023/05/04 11:17:48;;;;;;;5.32;3.42;;;18.20;75.80;;;;;;5044091;28;20169;-67
2023/05/04 11:20:21;;;;;;;7.40;3.33;;;18.30;77.30;;;;;;5044437;28;20537;-68
2023/05/04 11:22:48;;;;;;;7.55;3.30;;;18.40;77.80;;;;;;5039060;28;20095;-69
2023/05/04 11:25:15;;;;;;;7.05;3.30;;;18.40;77.30;;;;;;5041031;28;20041;-68
2023/05/04 11:27:42;;;;;;;6.00;2.97;;;18.40;76.40;;;;;;5022836;28;20161;-67
2023/05/04 11:30:08;;;;;;;6.40;2.95;;;18.60;74.20;;;;;;5043118;28;20041;-68
2023/05/04 11:32:38;;;;;;;6.03;2.80;;;18.60;76.30;;;;;;5043293;28;20101;-68
2023/05/04 11:35:07;;;;;;;5.25;3.10;;;18.50;72.60;;;;;;5043557;28;20037;-68
2023/05/04 11:37:43;;;;;;;5.90;3.25;;;18.50;73.30;;;;;;5041784;28;20076;-67
2023/05/04 11:40:09;;;;;;;7.22;3.75;;;18.50;71.90;;;;;;5043120;28;20074;-68
2023/05/04 11:42:40;;;;;;;5.78;3.25;;;18.60;77.40;;;;;;5023987;28;20086;-67
2023/05/04 11:45:25;;;;;;;5.15;2.67;;;18.70;76.10;;;;;;5043647;28;20049;-67
2023/05/04 11:47:52;;;;;;;5.72;2.83;;;18.80;75.30;;;;;;5043509;28;20539;-67
2023/05/04 11:50:19;;;;;;;6.97;2.95;;;18.90;71.10;;;;;;5042403;28;20123;-67
2023/05/04 11:52:46;;;;;;;3.85;2.78;;;18.90;72.70;;;;;;5044380;28;20045;-67
2023/05/04 11:55:29;;;;;;;4.68;2.15;;;19.00;73.20;;;;;;5044224;28;20075;-68
2023/05/04 11:58:13;;;;;;;8.32;3.53;;;19.10;72.10;;;;;;5043903;28;20044;-69
2023/05/04 12:00:44;;;;;;;3.83;2.50;;;19.10;75.70;;;;;;5034666;28;20972;-69
2023/05/04 12:03:22;;;;;;;4.57;2.50;;;19.20;74.30;;;;;;5041333;28;20448;-68
2023/05/04 12:05:49;;;;;;;6.00;2.20;;;19.20;68.50;;;;;;5041968;28;20672;-68
2023/05/04 12:08:34;;;;;;;8.70;2.58;;;19.30;70.00;;;;;;5043484;28;20041;-68
2023/05/04 12:11:14;;;;;;;3.45;2.35;;;19.40;71.20;;;;;;5041867;28;20053;-68
2023/05/04 12:13:43;;;;;;;4.93;2.50;;;19.40;71.30;;;;;;5042545;28;20124;-67
2023/05/04 12:16:17;;;;;;;4.65;2.70;;;19.50;69.80;;;;;;5027761;28;20041;-68
2023/05/04 12:18:45;;;;;;;5.28;2.80;;;19.50;71.10;;;;;;5042564;28;20060;-67
2023/05/04 12:21:18;;;;;;;6.95;2.47;;;19.50;69.40;;;;;;5045631;28;20123;-67
2023/05/04 12:23:45;;;;;;;4.07;2.80;;;19.30;70.30;;;;;;5048231;28;20048;-66
2023/05/04 12:26:12;;;;;;;4.55;2.58;;;19.40;72.00;;;;;;5048537;28;20052;-69
2023/05/04 12:28:40;;;;;;;4.47;2.50;;;19.40;71.00;;;;;;5045609;28;20095;-68
2023/05/04 12:31:05;;;;;;;4.85;2.70;;;19.60;70.40;;;;;;5044411;28;20036;-67
2023/05/04 12:33:31;;;;;;;;;;;19.60;73.30;;;;;;5047125;28;20128;-68
2023/05/04 12:35:59;;;;;;;4.20;2.60;;;19.70;71.70;;;;;;5047902;28;19962;-68
2023/05/04 12:38:25;;;;;;;3.63;2.35;;;19.70;71.90;;;;;;5045698;28;20132;-68
2023/05/04 12:40:51;;;;;;;4.63;2.08;;;19.70;68.50;;;;;;5045919;28;20041;-68
2023/05/04 12:43:18;;;;;;;;;;;19.70;70.20;;;;;;5043103;28;20044;-69
2023/05/04 12:45:44;;;;;;;4.32;2.70;;;19.70;69.60;;;;;;5044523;28;19912;-68
2023/05/04 12:48:10;;;;;;;8.32;2.55;;;19.60;69.50;;;;;;5044307;28;20132;-69
2023/05/04 12:50:36;;;;;;;;;;;19.70;71.50;;;;;;5045300;28;20136;-68
2023/05/04 12:53:03;;;;;;;4.93;2.13;;;19.80;69.40;;;;;;5058902;28;19943;-68
2023/05/04 12:55:30;;;;;;;5.10;2.40;;;19.90;69.70;;;;;;5046795;28;20079;-69
2023/05/04 12:57:56;;;;;;;5.15;2.38;;;19.80;71.60;;;;;;5033563;28;20044;-70